sensor_id;sensor_type;location;lat;lon;timestamp;temperature;humidity
53653;DHT22;39553;52.954;5.932;2023-04-15T00:01:24;6.80;99.90
53653;DHT22;39553;52.954;5.932;2023-04-15T00:03:51;6.30;99.90
53653;DHT22;39553;52.954;5.932;2023-04-15T00:06:18;5.80;99.90
53653;DHT22;39553;52.954;5.932;2023-04-15T00:08:44;6.20;99.90
53653;DHT22;39553;52.954;5.932;2023-04-15T00:11:11;6.10;99.90
53653;DHT22;39553;52.954;5.932;2023-04-15T00:13:37;6.10;99.90
53653;DHT22;39553;52.954;5.932;2023-04-15T00:16:04;6.10;99.90
53653;DHT22;39553;52.954;5.932;2023-04-15T00:18:31;6.00;99.90
53653;DHT22;39553;52.954;5.932;2023-04-15T00:20:57;6.00;99.90
53653;DHT22;39553;52.954;5.932;2023-04-15T00:23:24;6.00;99.90
53653;DHT22;39553;52.954;5.932;2023-04-15T00:25:50;5.90;99.90
53653;DHT22;39553;52.954;5.932;2023-04-15T00:28:16;5.90;99.90
53653;DHT22;39553;52.954;5.932;2023-04-15T00:30:43;5.90;99.90
53653;DHT22;39553;52.954;5.932;2023-04-15T00:33:09;5.80;99.90
53653;DHT22;39553;52.954;5.932;2023-04-15T00:35:35;5.80;99.90
53653;DHT22;39553;52.954;5.932;2023-04-15T00:38:03;6.40;99.90
53653;DHT22;39553;52.954;5.932;2023-04-15T00:40:29;5.70;99.90
53653;DHT22;39553;52.954;5.932;2023-04-15T00:42:55;5.70;99.90
53653;DHT22;39553;52.954;5.932;2023-04-15T00:45:21;5.70;99.90
53653;DHT22;39553;52.954;5.932;2023-04-15T00:47:47;5.70;99.90
53653;DHT22;39553;52.954;5.932;2023-04-15T00:50:13;5.60;99.90
53653;DHT22;39553;52.954;5.932;2023-04-15T00:52:39;5.60;99.90
53653;DHT22;39553;52.954;5.932;2023-04-15T00:55:06;5.60;99.90
53653;DHT22;39553;52.954;5.932;2023-04-15T00:57:32;5.50;99.90
53653;DHT22;39553;52.954;5.932;2023-04-15T00:59:58;5.50;99.90
53653;DHT22;39553;52.954;5.932;2023-04-15T01:02:24;5.40;99.90
53653;DHT22;39553;52.954;5.932;2023-04-15T01:04:50;6.40;99.90
53653;DHT22;39553;52.954;5.932;2023-04-15T01:07:16;5.40;99.90
53653;DHT22;39553;52.954;5.932;2023-04-15T01:09:42;5.40;99.90
53653;DHT22;39553;52.954;5.932;2023-04-15T01:12:13;5.40;99.90
53653;DHT22;39553;52.954;5.932;2023-04-15T01:14:40;6.10;99.90
53653;DHT22;39553;52.954;5.932;2023-04-15T01:17:05;5.30;99.90
53653;DHT22;39553;52.954;5.932;2023-04-15T01:19:32;5.40;99.90
53653;DHT22;39553;52.954;5.932;2023-04-15T01:21:58;5.80;99.90
53653;DHT22;39553;52.954;5.932;2023-04-15T01:24:25;5.30;99.90
53653;DHT22;39553;52.954;5.932;2023-04-15T01:26:52;5.30;99.90
53653;DHT22;39553;52.954;5.932;2023-04-15T01:29:18;5.20;99.90
53653;DHT22;39553;52.954;5.932;2023-04-15T01:31:51;5.20;99.90
53653;DHT22;39553;52.954;5.932;2023-04-15T01:34:18;5.80;99.90
53653;DHT22;39553;52.954;5.932;2023-04-15T01:36:44;6.40;99.90
53653;DHT22;39553;52.954;5.932;2023-04-15T01:39:10;6.40;99.90
53653;DHT22;39553;52.954;5.932;2023-04-15T01:41:36;5.20;99.90
53653;DHT22;39553;52.954;5.932;2023-04-15T01:44:01;5.20;99.90
53653;DHT22;39553;52.954;5.932;2023-04-15T01:46:27;5.20;99.90
53653;DHT22;39553;52.954;5.932;2023-04-15T01:48:53;5.20;99.90
53653;DHT22;39553;52.954;5.932;2023-04-15T01:51:19;5.10;99.90
53653;DHT22;39553;52.954;5.932;2023-04-15T01:53:45;5.10;99.90
53653;DHT22;39553;52.954;5.932;2023-04-15T01:56:11;5.10;99.90
53653;DHT22;39553;52.954;5.932;2023-04-15T01:58:37;5.10;99.90
53653;DHT22;39553;52.954;5.932;2023-04-15T02:01:02;5.10;99.90
53653;DHT22;39553;52.954;5.932;2023-04-15T02:03:29;5.10;99.90
53653;DHT22;39553;52.954;5.932;2023-04-15T02:05:54;5.70;99.90
53653;DHT22;39553;52.954;5.932;2023-04-15T02:08:21;5.00;99.90
53653;DHT22;39553;52.954;5.932;2023-04-15T02:10:47;5.10;99.90
53653;DHT22;39553;52.954;5.932;2023-04-15T02:13:12;6.30;99.90
53653;DHT22;39553;52.954;5.932;2023-04-15T02:15:48;5.00;99.90
53653;DHT22;39553;52.954;5.932;2023-04-15T02:18:15;5.00;99.90
53653;DHT22;39553;52.954;5.932;2023-04-15T02:20:41;5.40;99.90
53653;DHT22;39553;52.954;5.932;2023-04-15T02:23:08;5.60;99.90
53653;DHT22;39553;52.954;5.932;2023-04-15T02:25:34;4.90;99.90
53653;DHT22;39553;52.954;5.932;2023-04-15T02:28:00;4.90;99.90
53653;DHT22;39553;52.954;5.932;2023-04-15T02:30:25;4.90;99.90
53653;DHT22;39553;52.954;5.932;2023-04-15T02:32:51;4.90;99.90
53653;DHT22;39553;52.954;5.932;2023-04-15T02:35:18;4.90;99.90
53653;DHT22;39553;52.954;5.932;2023-04-15T02:37:44;5.30;99.90
53653;DHT22;39553;52.954;5.932;2023-04-15T02:40:11;5.70;99.90
53653;DHT22;39553;52.954;5.932;2023-04-15T02:42:41;4.80;99.90
53653;DHT22;39553;52.954;5.932;2023-04-15T02:45:09;4.70;99.90
53653;DHT22;39553;52.954;5.932;2023-04-15T02:47:36;4.70;99.90
53653;DHT22;39553;52.954;5.932;2023-04-15T02:50:11;4.70;99.90
53653;DHT22;39553;52.954;5.932;2023-04-15T02:52:41;4.70;99.90
53653;DHT22;39553;52.954;5.932;2023-04-15T02:55:08;4.70;99.90
53653;DHT22;39553;52.954;5.932;2023-04-15T02:57:34;4.70;99.90
53653;DHT22;39553;52.954;5.932;2023-04-15T03:00:02;5.60;99.90
53653;DHT22;39553;52.954;5.932;2023-04-15T03:02:36;4.70;99.90
53653;DHT22;39553;52.954;5.932;2023-04-15T03:05:02;4.70;99.90
53653;DHT22;39553;52.954;5.932;2023-04-15T03:07:29;4.60;99.90
53653;DHT22;39553;52.954;5.932;2023-04-15T03:09:54;4.60;99.90
53653;DHT22;39553;52.954;5.932;2023-04-15T03:12:20;4.60;99.90
53653;DHT22;39553;52.954;5.932;2023-04-15T03:14:46;4.60;99.90
53653;DHT22;39553;52.954;5.932;2023-04-15T03:17:12;4.60;99.90
53653;DHT22;39553;52.954;5.932;2023-04-15T03:19:38;4.60;99.90
53653;DHT22;39553;52.954;5.932;2023-04-15T03:22:03;4.50;99.90
53653;DHT22;39553;52.954;5.932;2023-04-15T03:24:29;4.80;99.90
53653;DHT22;39553;52.954;5.932;2023-04-15T03:26:56;4.50;99.90
53653;DHT22;39553;52.954;5.932;2023-04-15T03:29:22;4.70;99.90
53653;DHT22;39553;52.954;5.932;2023-04-15T03:31:48;4.50;99.90
53653;DHT22;39553;52.954;5.932;2023-04-15T03:34:14;4.50;99.90
53653;DHT22;39553;52.954;5.932;2023-04-15T03:36:40;4.50;99.90
53653;DHT22;39553;52.954;5.932;2023-04-15T03:39:06;4.50;99.90
53653;DHT22;39553;52.954;5.932;2023-04-15T03:41:31;4.40;99.90
53653;DHT22;39553;52.954;5.932;2023-04-15T03:43:58;4.40;99.90
53653;DHT22;39553;52.954;5.932;2023-04-15T03:46:23;4.40;99.90
53653;DHT22;39553;52.954;5.932;2023-04-15T03:48:50;4.40;99.90
53653;DHT22;39553;52.954;5.932;2023-04-15T03:51:16;5.00;99.90
53653;DHT22;39553;52.954;5.932;2023-04-15T03:53:41;4.40;99.90
53653;DHT22;39553;52.954;5.932;2023-04-15T03:56:07;4.40;99.90
53653;DHT22;39553;52.954;5.932;2023-04-15T03:58:33;4.30;99.90
53653;DHT22;39553;52.954;5.932;2023-04-15T04:00:59;4.80;99.90
53653;DHT22;39553;52.954;5.932;2023-04-15T04:03:25;4.30;99.90
53653;DHT22;39553;52.954;5.932;2023-04-15T04:05:50;4.30;99.90
53653;DHT22;39553;52.954;5.932;2023-04-15T04:08:16;4.20;99.90
53653;DHT22;39553;52.954;5.932;2023-04-15T04:10:44;4.20;99.90
53653;DHT22;39553;52.954;5.932;2023-04-15T04:13:09;4.20;99.90
53653;DHT22;39553;52.954;5.932;2023-04-15T04:15:35;4.20;99.90
53653;DHT22;39553;52.954;5.932;2023-04-15T04:18:01;4.10;99.90
53653;DHT22;39553;52.954;5.932;2023-04-15T04:20:27;4.10;99.90
53653;DHT22;39553;52.954;5.932;2023-04-15T04:22:53;4.60;99.90
53653;DHT22;39553;52.954;5.932;2023-04-15T04:25:19;4.00;99.90
53653;DHT22;39553;52.954;5.932;2023-04-15T04:27:45;3.90;99.90
53653;DHT22;39553;52.954;5.932;2023-04-15T04:30:11;3.80;99.90
53653;DHT22;39553;52.954;5.932;2023-04-15T04:32:37;3.90;99.90
53653;DHT22;39553;52.954;5.932;2023-04-15T04:35:03;3.90;99.90
53653;DHT22;39553;52.954;5.932;2023-04-15T04:37:29;3.90;99.90
53653;DHT22;39553;52.954;5.932;2023-04-15T04:39:55;3.80;99.90
53653;DHT22;39553;52.954;5.932;2023-04-15T04:42:21;3.80;99.90
53653;DHT22;39553;52.954;5.932;2023-04-15T04:44:47;3.30;99.90
53653;DHT22;39553;52.954;5.932;2023-04-15T04:47:13;3.10;99.90
53653;DHT22;39553;52.954;5.932;2023-04-15T04:49:39;3.80;99.90
53653;DHT22;39553;52.954;5.932;2023-04-15T04:52:19;3.80;99.90
53653;DHT22;39553;52.954;5.932;2023-04-15T04:54:45;3.80;99.90
53653;DHT22;39553;52.954;5.932;2023-04-15T04:57:12;3.80;99.90
53653;DHT22;39553;52.954;5.932;2023-04-15T04:59:39;3.80;99.90
53653;DHT22;39553;52.954;5.932;2023-04-15T05:02:05;3.80;99.90
53653;DHT22;39553;52.954;5.932;2023-04-15T05:04:31;3.60;99.90
53653;DHT22;39553;52.954;5.932;2023-04-15T05:06:57;3.80;99.90
53653;DHT22;39553;52.954;5.932;2023-04-15T05:09:24;3.80;99.90
53653;DHT22;39553;52.954;5.932;2023-04-15T05:11:52;3.90;99.90
53653;DHT22;39553;52.954;5.932;2023-04-15T05:14:19;3.90;99.90
53653;DHT22;39553;52.954;5.932;2023-04-15T05:16:47;4.00;99.90
53653;DHT22;39553;52.954;5.932;2023-04-15T05:19:16;4.20;99.90
53653;DHT22;39553;52.954;5.932;2023-04-15T05:21:42;4.50;99.90
53653;DHT22;39553;52.954;5.932;2023-04-15T05:24:08;4.30;99.90
53653;DHT22;39553;52.954;5.932;2023-04-15T05:26:34;4.40;99.90
53653;DHT22;39553;52.954;5.932;2023-04-15T05:29:02;4.40;99.90
53653;DHT22;39553;52.954;5.932;2023-04-15T05:31:28;4.50;99.90
53653;DHT22;39553;52.954;5.932;2023-04-15T05:33:54;4.60;99.90
53653;DHT22;39553;52.954;5.932;2023-04-15T05:36:20;4.10;99.90
53653;DHT22;39553;52.954;5.932;2023-04-15T05:38:46;4.90;99.90
53653;DHT22;39553;52.954;5.932;2023-04-15T05:41:12;5.30;99.90
53653;DHT22;39553;52.954;5.932;2023-04-15T05:43:40;5.60;99.90
53653;DHT22;39553;52.954;5.932;2023-04-15T05:46:06;5.90;99.90
53653;DHT22;39553;52.954;5.932;2023-04-15T05:48:33;6.20;99.90
53653;DHT22;39553;52.954;5.932;2023-04-15T05:50:59;6.40;99.90
53653;DHT22;39553;52.954;5.932;2023-04-15T05:53:28;6.60;99.90
53653;DHT22;39553;52.954;5.932;2023-04-15T05:55:57;6.60;99.90
53653;DHT22;39553;52.954;5.932;2023-04-15T05:58:23;6.90;99.90
53653;DHT22;39553;52.954;5.932;2023-04-15T06:00:49;7.00;99.90
53653;DHT22;39553;52.954;5.932;2023-04-15T06:03:15;7.10;99.90
53653;DHT22;39553;52.954;5.932;2023-04-15T06:05:41;7.20;99.90
53653;DHT22;39553;52.954;5.932;2023-04-15T06:08:07;7.40;99.90
53653;DHT22;39553;52.954;5.932;2023-04-15T06:10:34;7.60;99.90
53653;DHT22;39553;52.954;5.932;2023-04-15T06:13:02;7.80;99.90
53653;DHT22;39553;52.954;5.932;2023-04-15T06:15:29;8.20;99.90
53653;DHT22;39553;52.954;5.932;2023-04-15T06:17:56;9.00;99.90
53653;DHT22;39553;52.954;5.932;2023-04-15T06:20:22;8.90;99.90
53653;DHT22;39553;52.954;5.932;2023-04-15T06:22:48;9.00;99.90
53653;DHT22;39553;52.954;5.932;2023-04-15T06:25:14;8.80;99.90
53653;DHT22;39553;52.954;5.932;2023-04-15T06:27:41;8.60;99.90
53653;DHT22;39553;52.954;5.932;2023-04-15T06:30:07;8.40;99.90
53653;DHT22;39553;52.954;5.932;2023-04-15T06:32:33;8.20;99.90
53653;DHT22;39553;52.954;5.932;2023-04-15T06:35:02;7.60;99.90
53653;DHT22;39553;52.954;5.932;2023-04-15T06:37:29;8.00;99.90
53653;DHT22;39553;52.954;5.932;2023-04-15T06:39:57;7.90;99.90
53653;DHT22;39553;52.954;5.932;2023-04-15T06:42:23;8.10;99.90
53653;DHT22;39553;52.954;5.932;2023-04-15T06:44:49;9.50;99.90
53653;DHT22;39553;52.954;5.932;2023-04-15T06:47:15;8.50;99.90
53653;DHT22;39553;52.954;5.932;2023-04-15T06:49:41;8.80;99.90
53653;DHT22;39553;52.954;5.932;2023-04-15T06:52:09;9.00;99.90
53653;DHT22;39553;52.954;5.932;2023-04-15T06:54:35;9.30;99.90
53653;DHT22;39553;52.954;5.932;2023-04-15T06:57:01;10.10;99.90
53653;DHT22;39553;52.954;5.932;2023-04-15T06:59:27;8.80;99.90
53653;DHT22;39553;52.954;5.932;2023-04-15T07:01:53;9.80;99.90
53653;DHT22;39553;52.954;5.932;2023-04-15T07:04:19;9.90;99.90
53653;DHT22;39553;52.954;5.932;2023-04-15T07:06:45;10.20;99.90
53653;DHT22;39553;52.954;5.932;2023-04-15T07:09:11;10.60;99.90
53653;DHT22;39553;52.954;5.932;2023-04-15T07:11:37;10.50;99.90
53653;DHT22;39553;52.954;5.932;2023-04-15T07:14:03;11.40;99.90
53653;DHT22;39553;52.954;5.932;2023-04-15T07:16:29;11.20;99.90
53653;DHT22;39553;52.954;5.932;2023-04-15T07:18:55;11.40;99.90
53653;DHT22;39553;52.954;5.932;2023-04-15T07:21:21;11.40;99.90
53653;DHT22;39553;52.954;5.932;2023-04-15T07:23:48;11.60;99.90
53653;DHT22;39553;52.954;5.932;2023-04-15T07:26:14;11.60;99.90
53653;DHT22;39553;52.954;5.932;2023-04-15T07:28:40;11.80;99.90
53653;DHT22;39553;52.954;5.932;2023-04-15T07:31:06;12.10;99.90
53653;DHT22;39553;52.954;5.932;2023-04-15T07:33:32;11.60;99.90
53653;DHT22;39553;52.954;5.932;2023-04-15T07:35:58;12.20;99.90
53653;DHT22;39553;52.954;5.932;2023-04-15T07:38:24;11.70;99.90
53653;DHT22;39553;52.954;5.932;2023-04-15T07:40:50;12.00;99.90
53653;DHT22;39553;52.954;5.932;2023-04-15T07:43:19;11.90;99.90
53653;DHT22;39553;52.954;5.932;2023-04-15T07:45:45;11.80;99.90
53653;DHT22;39553;52.954;5.932;2023-04-15T07:48:11;11.60;99.90
53653;DHT22;39553;52.954;5.932;2023-04-15T07:50:37;11.70;99.90
53653;DHT22;39553;52.954;5.932;2023-04-15T07:53:03;11.50;99.90
53653;DHT22;39553;52.954;5.932;2023-04-15T07:55:30;11.50;99.90
53653;DHT22;39553;52.954;5.932;2023-04-15T07:57:56;11.40;99.90
53653;DHT22;39553;52.954;5.932;2023-04-15T08:00:22;11.10;99.90
53653;DHT22;39553;52.954;5.932;2023-04-15T08:02:48;11.00;99.90
53653;DHT22;39553;52.954;5.932;2023-04-15T08:05:14;10.90;99.90
53653;DHT22;39553;52.954;5.932;2023-04-15T08:07:40;10.80;99.90
53653;DHT22;39553;52.954;5.932;2023-04-15T08:10:06;10.20;99.90
53653;DHT22;39553;52.954;5.932;2023-04-15T08:12:32;10.90;99.90
53653;DHT22;39553;52.954;5.932;2023-04-15T08:14:59;11.10;99.90
53653;DHT22;39553;52.954;5.932;2023-04-15T08:17:25;11.20;99.90
53653;DHT22;39553;52.954;5.932;2023-04-15T08:19:51;11.30;99.90
53653;DHT22;39553;52.954;5.932;2023-04-15T08:22:18;11.50;99.90
53653;DHT22;39553;52.954;5.932;2023-04-15T08:24:44;11.70;99.90
53653;DHT22;39553;52.954;5.932;2023-04-15T08:27:10;12.10;99.90
53653;DHT22;39553;52.954;5.932;2023-04-15T08:29:36;11.70;99.90
53653;DHT22;39553;52.954;5.932;2023-04-15T08:32:02;12.80;99.90
53653;DHT22;39553;52.954;5.932;2023-04-15T08:34:28;12.90;99.10
53653;DHT22;39553;52.954;5.932;2023-04-15T08:36:55;12.80;98.30
53653;DHT22;39553;52.954;5.932;2023-04-15T08:39:21;12.80;97.60
53653;DHT22;39553;52.954;5.932;2023-04-15T08:41:51;12.90;97.60
53653;DHT22;39553;52.954;5.932;2023-04-15T08:44:23;12.80;96.70
53653;DHT22;39553;52.954;5.932;2023-04-15T08:46:51;12.50;96.10
53653;DHT22;39553;52.954;5.932;2023-04-15T08:49:18;12.50;97.00
53653;DHT22;39553;52.954;5.932;2023-04-15T08:51:46;12.40;96.90
53653;DHT22;39553;52.954;5.932;2023-04-15T08:54:13;12.50;96.80
53653;DHT22;39553;52.954;5.932;2023-04-15T08:56:39;12.60;96.30
53653;DHT22;39553;52.954;5.932;2023-04-15T08:59:06;12.60;95.60
53653;DHT22;39553;52.954;5.932;2023-04-15T09:01:36;12.60;95.90
53653;DHT22;39553;52.954;5.932;2023-04-15T09:04:03;12.50;95.90
53653;DHT22;39553;52.954;5.932;2023-04-15T09:06:32;12.00;95.40
53653;DHT22;39553;52.954;5.932;2023-04-15T09:08:59;12.20;95.30
53653;DHT22;39553;52.954;5.932;2023-04-15T09:11:25;12.00;95.50
53653;DHT22;39553;52.954;5.932;2023-04-15T09:13:51;11.90;95.80
53653;DHT22;39553;52.954;5.932;2023-04-15T09:16:17;11.70;95.90
53653;DHT22;39553;52.954;5.932;2023-04-15T09:18:44;11.50;96.10
53653;DHT22;39553;52.954;5.932;2023-04-15T09:21:13;11.50;96.50
53653;DHT22;39553;52.954;5.932;2023-04-15T09:23:52;11.40;96.90
53653;DHT22;39553;52.954;5.932;2023-04-15T09:26:18;11.80;97.10
53653;DHT22;39553;52.954;5.932;2023-04-15T09:28:44;11.60;97.10
53653;DHT22;39553;52.954;5.932;2023-04-15T09:31:10;11.60;97.20
53653;DHT22;39553;52.954;5.932;2023-04-15T09:33:54;11.60;97.00
53653;DHT22;39553;52.954;5.932;2023-04-15T09:36:22;11.50;96.80
53653;DHT22;39553;52.954;5.932;2023-04-15T09:38:57;11.30;96.90
53653;DHT22;39553;52.954;5.932;2023-04-15T09:41:26;11.20;97.10
53653;DHT22;39553;52.954;5.932;2023-04-15T09:43:53;11.10;97.40
53653;DHT22;39553;52.954;5.932;2023-04-15T09:46:19;11.00;97.80
53653;DHT22;39553;52.954;5.932;2023-04-15T09:48:45;11.10;97.90
53653;DHT22;39553;52.954;5.932;2023-04-15T09:51:11;11.20;97.90
53653;DHT22;39553;52.954;5.932;2023-04-15T09:53:36;11.40;97.70
53653;DHT22;39553;52.954;5.932;2023-04-15T09:56:06;11.70;97.80
53653;DHT22;39553;52.954;5.932;2023-04-15T09:58:36;11.90;97.40
53653;DHT22;39553;52.954;5.932;2023-04-15T10:01:04;11.80;96.70
53653;DHT22;39553;52.954;5.932;2023-04-15T10:03:32;11.80;96.90
53653;DHT22;39553;52.954;5.932;2023-04-15T10:06:00;12.60;97.00
53653;DHT22;39553;52.954;5.932;2023-04-15T10:08:35;13.50;96.40
53653;DHT22;39553;52.954;5.932;2023-04-15T10:11:01;14.10;95.40
53653;DHT22;39553;52.954;5.932;2023-04-15T10:13:30;14.50;94.50
53653;DHT22;39553;52.954;5.932;2023-04-15T10:16:06;14.70;93.60
53653;DHT22;39553;52.954;5.932;2023-04-15T10:18:37;14.90;93.40
53653;DHT22;39553;52.954;5.932;2023-04-15T10:21:06;14.40;92.80
53653;DHT22;39553;52.954;5.932;2023-04-15T10:23:33;13.80;92.90
53653;DHT22;39553;52.954;5.932;2023-04-15T10:25:59;13.40;93.30
53653;DHT22;39553;52.954;5.932;2023-04-15T10:28:26;13.00;93.50
53653;DHT22;39553;52.954;5.932;2023-04-15T10:31:00;12.70;93.40
53653;DHT22;39553;52.954;5.932;2023-04-15T10:33:27;12.60;93.80
53653;DHT22;39553;52.954;5.932;2023-04-15T10:35:54;13.00;93.90
53653;DHT22;39553;52.954;5.932;2023-04-15T10:41:20;13.40;92.50
53653;DHT22;39553;52.954;5.932;2023-04-15T10:43:49;13.90;91.90
53653;DHT22;39553;52.954;5.932;2023-04-15T10:46:20;14.30;92.40
53653;DHT22;39553;52.954;5.932;2023-04-15T10:48:49;14.40;91.60
53653;DHT22;39553;52.954;5.932;2023-04-15T10:51:16;14.20;91.40
53653;DHT22;39553;52.954;5.932;2023-04-15T10:53:55;13.90;91.70
53653;DHT22;39553;52.954;5.932;2023-04-15T10:56:22;13.50;91.80
53653;DHT22;39553;52.954;5.932;2023-04-15T10:58:48;12.60;92.20
53653;DHT22;39553;52.954;5.932;2023-04-15T11:01:14;13.00;92.50
53653;DHT22;39553;52.954;5.932;2023-04-15T11:03:42;13.00;92.60
53653;DHT22;39553;52.954;5.932;2023-04-15T11:06:08;12.60;93.00
53653;DHT22;39553;52.954;5.932;2023-04-15T11:08:55;12.40;93.00
53653;DHT22;39553;52.954;5.932;2023-04-15T11:11:22;12.30;92.70
53653;DHT22;39553;52.954;5.932;2023-04-15T11:13:50;12.20;93.30
53653;DHT22;39553;52.954;5.932;2023-04-15T11:16:17;12.00;93.40
53653;DHT22;39553;52.954;5.932;2023-04-15T11:18:54;11.80;93.80
53653;DHT22;39553;52.954;5.932;2023-04-15T11:21:24;11.50;94.20
53653;DHT22;39553;52.954;5.932;2023-04-15T11:23:51;11.40;94.70
53653;DHT22;39553;52.954;5.932;2023-04-15T11:26:17;11.50;95.10
53653;DHT22;39553;52.954;5.932;2023-04-15T11:28:43;11.70;95.00
53653;DHT22;39553;52.954;5.932;2023-04-15T11:31:17;11.70;94.70
53653;DHT22;39553;52.954;5.932;2023-04-15T11:34:07;11.70;94.80
53653;DHT22;39553;52.954;5.932;2023-04-15T11:36:33;11.10;94.70
53653;DHT22;39553;52.954;5.932;2023-04-15T11:38:59;11.60;95.00
53653;DHT22;39553;52.954;5.932;2023-04-15T11:41:25;11.50;95.10
53653;DHT22;39553;52.954;5.932;2023-04-15T11:43:52;11.50;95.50
53653;DHT22;39553;52.954;5.932;2023-04-15T11:46:18;11.40;95.70
53653;DHT22;39553;52.954;5.932;2023-04-15T11:48:45;11.50;95.60
53653;DHT22;39553;52.954;5.932;2023-04-15T11:51:12;11.40;95.60
53653;DHT22;39553;52.954;5.932;2023-04-15T11:53:44;11.30;95.90
53653;DHT22;39553;52.954;5.932;2023-04-15T11:56:24;11.40;95.80
53653;DHT22;39553;52.954;5.932;2023-04-15T11:58:52;11.40;95.70
53653;DHT22;39553;52.954;5.932;2023-04-15T12:01:18;11.40;95.90
53653;DHT22;39553;52.954;5.932;2023-04-15T12:03:45;11.40;95.90
53653;DHT22;39553;52.954;5.932;2023-04-15T12:06:17;11.10;96.00
53653;DHT22;39553;52.954;5.932;2023-04-15T12:09:16;10.90;96.40
53653;DHT22;39553;52.954;5.932;2023-04-15T12:11:49;10.80;97.50
53653;DHT22;39553;52.954;5.932;2023-04-15T12:14:33;10.60;97.40
53653;DHT22;39553;52.954;5.932;2023-04-15T12:17:01;10.60;98.60
53653;DHT22;39553;52.954;5.932;2023-04-15T12:19:36;10.50;98.20
53653;DHT22;39553;52.954;5.932;2023-04-15T12:22:05;10.40;98.70
53653;DHT22;39553;52.954;5.932;2023-04-15T12:24:32;10.20;99.20
53653;DHT22;39553;52.954;5.932;2023-04-15T12:27:17;10.20;99.70
53653;DHT22;39553;52.954;5.932;2023-04-15T12:29:43;10.20;99.90
53653;DHT22;39553;52.954;5.932;2023-04-15T12:32:10;10.20;99.90
53653;DHT22;39553;52.954;5.932;2023-04-15T12:37:11;9.30;99.90
53653;DHT22;39553;52.954;5.932;2023-04-15T12:39:39;10.00;99.90
53653;DHT22;39553;52.954;5.932;2023-04-15T12:42:06;9.90;99.90
53653;DHT22;39553;52.954;5.932;2023-04-15T12:44:34;9.90;99.90
53653;DHT22;39553;52.954;5.932;2023-04-15T12:47:00;9.80;99.90
53653;DHT22;39553;52.954;5.932;2023-04-15T12:49:30;9.70;99.90
53653;DHT22;39553;52.954;5.932;2023-04-15T12:51:58;9.80;99.90
53653;DHT22;39553;52.954;5.932;2023-04-15T12:54:25;9.90;99.90
53653;DHT22;39553;52.954;5.932;2023-04-15T12:56:52;9.90;99.90
53653;DHT22;39553;52.954;5.932;2023-04-15T12:59:19;9.90;99.90
53653;DHT22;39553;52.954;5.932;2023-04-15T13:01:45;10.00;99.90
53653;DHT22;39553;52.954;5.932;2023-04-15T13:04:12;10.00;99.90
53653;DHT22;39553;52.954;5.932;2023-04-15T13:06:41;9.90;99.90
53653;DHT22;39553;52.954;5.932;2023-04-15T13:09:07;9.90;99.90
53653;DHT22;39553;52.954;5.932;2023-04-15T13:11:33;8.90;99.90
53653;DHT22;39553;52.954;5.932;2023-04-15T13:14:04;9.60;99.90
53653;DHT22;39553;52.954;5.932;2023-04-15T13:16:31;9.60;99.90
53653;DHT22;39553;52.954;5.932;2023-04-15T13:19:01;9.50;99.90
53653;DHT22;39553;52.954;5.932;2023-04-15T13:21:28;9.50;99.90
53653;DHT22;39553;52.954;5.932;2023-04-15T13:23:55;9.40;99.90
53653;DHT22;39553;52.954;5.932;2023-04-15T13:26:25;9.60;99.90
53653;DHT22;39553;52.954;5.932;2023-04-15T13:28:51;9.40;99.90
53653;DHT22;39553;52.954;5.932;2023-04-15T13:31:17;9.50;99.90
53653;DHT22;39553;52.954;5.932;2023-04-15T13:33:43;9.40;99.90
53653;DHT22;39553;52.954;5.932;2023-04-15T13:36:08;9.50;99.90
53653;DHT22;39553;52.954;5.932;2023-04-15T13:38:35;8.40;99.90
53653;DHT22;39553;52.954;5.932;2023-04-15T13:41:02;9.50;99.90
53653;DHT22;39553;52.954;5.932;2023-04-15T13:43:28;9.00;99.90
53653;DHT22;39553;52.954;5.932;2023-04-15T13:45:54;9.60;99.90
53653;DHT22;39553;52.954;5.932;2023-04-15T13:48:21;9.60;99.90
53653;DHT22;39553;52.954;5.932;2023-04-15T13:50:47;9.10;99.90
53653;DHT22;39553;52.954;5.932;2023-04-15T13:53:13;9.50;99.90
53653;DHT22;39553;52.954;5.932;2023-04-15T13:55:39;9.60;99.90
53653;DHT22;39553;52.954;5.932;2023-04-15T13:58:10;9.80;99.90
53653;DHT22;39553;52.954;5.932;2023-04-15T14:00:36;9.60;99.90
53653;DHT22;39553;52.954;5.932;2023-04-15T14:03:02;9.70;99.90
53653;DHT22;39553;52.954;5.932;2023-04-15T14:05:30;9.70;99.90
53653;DHT22;39553;52.954;5.932;2023-04-15T14:07:58;9.90;99.90
53653;DHT22;39553;52.954;5.932;2023-04-15T14:10:24;9.90;99.90
53653;DHT22;39553;52.954;5.932;2023-04-15T14:12:50;10.00;99.90
53653;DHT22;39553;52.954;5.932;2023-04-15T14:15:21;10.10;99.90
53653;DHT22;39553;52.954;5.932;2023-04-15T14:17:46;10.10;99.90
53653;DHT22;39553;52.954;5.932;2023-04-15T14:20:12;10.10;99.90
53653;DHT22;39553;52.954;5.932;2023-04-15T14:22:39;9.90;99.90
53653;DHT22;39553;52.954;5.932;2023-04-15T14:25:05;9.90;99.90
53653;DHT22;39553;52.954;5.932;2023-04-15T14:27:31;9.90;99.90
53653;DHT22;39553;52.954;5.932;2023-04-15T14:29:57;9.90;99.90
53653;DHT22;39553;52.954;5.932;2023-04-15T14:32:24;9.90;99.90
53653;DHT22;39553;52.954;5.932;2023-04-15T14:34:51;10.00;99.90
53653;DHT22;39553;52.954;5.932;2023-04-15T14:37:17;10.00;99.90
53653;DHT22;39553;52.954;5.932;2023-04-15T14:39:42;10.00;99.90
53653;DHT22;39553;52.954;5.932;2023-04-15T14:42:08;9.90;99.90
53653;DHT22;39553;52.954;5.932;2023-04-15T14:44:34;9.90;99.90
53653;DHT22;39553;52.954;5.932;2023-04-15T14:47:00;9.90;99.90
53653;DHT22;39553;52.954;5.932;2023-04-15T14:49:26;9.80;99.90
53653;DHT22;39553;52.954;5.932;2023-04-15T14:51:52;9.80;99.90
53653;DHT22;39553;52.954;5.932;2023-04-15T14:54:17;9.70;99.90
53653;DHT22;39553;52.954;5.932;2023-04-15T14:56:46;9.50;99.90
53653;DHT22;39553;52.954;5.932;2023-04-15T14:59:13;9.60;99.90
53653;DHT22;39553;52.954;5.932;2023-04-15T15:01:39;9.60;99.90
53653;DHT22;39553;52.954;5.932;2023-04-15T15:04:05;10.90;99.90
53653;DHT22;39553;52.954;5.932;2023-04-15T15:06:31;9.70;99.90
53653;DHT22;39553;52.954;5.932;2023-04-15T15:08:57;9.70;99.90
53653;DHT22;39553;52.954;5.932;2023-04-15T15:11:23;9.60;99.90
53653;DHT22;39553;52.954;5.932;2023-04-15T15:13:49;9.50;99.90
53653;DHT22;39553;52.954;5.932;2023-04-15T15:16:20;9.50;99.90
53653;DHT22;39553;52.954;5.932;2023-04-15T15:18:46;8.80;99.90
53653;DHT22;39553;52.954;5.932;2023-04-15T15:21:12;9.50;99.90
53653;DHT22;39553;52.954;5.932;2023-04-15T15:23:38;9.50;99.90
53653;DHT22;39553;52.954;5.932;2023-04-15T15:26:04;9.50;99.90
53653;DHT22;39553;52.954;5.932;2023-04-15T15:28:30;9.50;99.90
53653;DHT22;39553;52.954;5.932;2023-04-15T15:30:56;9.50;99.90
53653;DHT22;39553;52.954;5.932;2023-04-15T15:33:22;9.40;99.90
53653;DHT22;39553;52.954;5.932;2023-04-15T15:35:48;9.30;99.90
53653;DHT22;39553;52.954;5.932;2023-04-15T15:38:15;9.30;99.90
53653;DHT22;39553;52.954;5.932;2023-04-15T15:40:44;9.30;99.90
53653;DHT22;39553;52.954;5.932;2023-04-15T15:43:15;9.30;99.90
53653;DHT22;39553;52.954;5.932;2023-04-15T15:45:43;9.20;99.90